Terminal Aerodrome Forecast
Issued by NWS

Home | Current Version | Previous Version | Text Only | Print | Product List | Glossary On
Versions: 1 2 3 4 5 6 7 8 9 10 11 12 13 14
609
FTUS42 TJSJ 290520
TAFJMZ
TAF
TJMZ 290520Z 2906/3006 08005KT P6SM FEW030 SCT060
     FM291300 09007KT P6SM FEW025
     FM291830 28008KT P6SM VCTS BKN030CB OVC050
     FM292300 07006KT P6SM SCT030 BKN060
      AMD NOT SKED=

USA.gov is the U.S. government's official web portal to all federal, state and local government web resources and services.